sensor_id;sensor_type;location;lat;lon;timestamp;P1;durP1;ratioP1;P2;durP2;ratioP2
2896;SDS011;1458;49.728;9.228;2024-03-06T00:01:44;0.40;;;0.40;;
2896;SDS011;1458;49.728;9.228;2024-03-06T00:04:13;0.30;;;0.30;;
2896;SDS011;1458;49.728;9.228;2024-03-06T00:06:40;0.40;;;0.40;;
2896;SDS011;1458;49.728;9.228;2024-03-06T00:09:08;0.30;;;0.30;;
2896;SDS011;1458;49.728;9.228;2024-03-06T00:11:35;0.30;;;0.30;;
2896;SDS011;1458;49.728;9.228;2024-03-06T00:14:03;0.30;;;0.30;;
2896;SDS011;1458;49.728;9.228;2024-03-06T00:16:30;0.30;;;0.30;;
2896;SDS011;1458;49.728;9.228;2024-03-06T00:18:58;0.40;;;0.40;;
2896;SDS011;1458;49.728;9.228;2024-03-06T00:21:27;0.40;;;0.40;;
2896;SDS011;1458;49.728;9.228;2024-03-06T00:23:55;0.40;;;0.40;;
2896;SDS011;1458;49.728;9.228;2024-03-06T00:26:22;0.40;;;0.40;;
2896;SDS011;1458;49.728;9.228;2024-03-06T00:28:49;0.30;;;0.30;;
2896;SDS011;1458;49.728;9.228;2024-03-06T00:31:17;0.40;;;0.40;;
2896;SDS011;1458;49.728;9.228;2024-03-06T00:33:44;0.50;;;0.50;;
2896;SDS011;1458;49.728;9.228;2024-03-06T00:36:11;0.40;;;0.40;;
2896;SDS011;1458;49.728;9.228;2024-03-06T00:38:40;0.40;;;0.40;;
2896;SDS011;1458;49.728;9.228;2024-03-06T00:41:07;0.40;;;0.40;;
2896;SDS011;1458;49.728;9.228;2024-03-06T00:43:35;0.30;;;0.30;;
2896;SDS011;1458;49.728;9.228;2024-03-06T00:46:03;0.30;;;0.30;;
2896;SDS011;1458;49.728;9.228;2024-03-06T00:48:30;0.30;;;0.30;;
2896;SDS011;1458;49.728;9.228;2024-03-06T00:50:58;0.40;;;0.40;;
2896;SDS011;1458;49.728;9.228;2024-03-06T00:53:25;0.37;;;0.37;;
2896;SDS011;1458;49.728;9.228;2024-03-06T00:55:54;0.40;;;0.40;;
2896;SDS011;1458;49.728;9.228;2024-03-06T00:58:21;0.40;;;0.40;;
2896;SDS011;1458;49.728;9.228;2024-03-06T01:00:49;0.30;;;0.30;;
2896;SDS011;1458;49.728;9.228;2024-03-06T01:03:16;0.40;;;0.40;;
2896;SDS011;1458;49.728;9.228;2024-03-06T01:05:45;0.40;;;0.40;;
2896;SDS011;1458;49.728;9.228;2024-03-06T01:08:12;0.40;;;0.40;;
2896;SDS011;1458;49.728;9.228;2024-03-06T01:10:43;0.30;;;0.30;;
2896;SDS011;1458;49.728;9.228;2024-03-06T01:13:11;0.33;;;0.33;;
2896;SDS011;1458;49.728;9.228;2024-03-06T01:15:39;0.40;;;0.40;;
2896;SDS011;1458;49.728;9.228;2024-03-06T01:18:06;0.40;;;0.40;;
2896;SDS011;1458;49.728;9.228;2024-03-06T01:20:34;0.30;;;0.30;;
2896;SDS011;1458;49.728;9.228;2024-03-06T01:23:01;0.40;;;0.40;;
2896;SDS011;1458;49.728;9.228;2024-03-06T01:25:29;0.40;;;0.40;;
2896;SDS011;1458;49.728;9.228;2024-03-06T01:27:56;0.40;;;0.40;;
2896;SDS011;1458;49.728;9.228;2024-03-06T01:30:25;0.30;;;0.30;;
2896;SDS011;1458;49.728;9.228;2024-03-06T01:32:52;0.50;;;0.50;;
2896;SDS011;1458;49.728;9.228;2024-03-06T01:35:20;0.40;;;0.40;;
2896;SDS011;1458;49.728;9.228;2024-03-06T01:37:48;0.40;;;0.40;;
2896;SDS011;1458;49.728;9.228;2024-03-06T01:40:16;0.40;;;0.40;;
2896;SDS011;1458;49.728;9.228;2024-03-06T01:42:43;0.40;;;0.40;;
2896;SDS011;1458;49.728;9.228;2024-03-06T01:45:13;0.50;;;0.50;;
2896;SDS011;1458;49.728;9.228;2024-03-06T01:47:42;0.60;;;0.60;;
2896;SDS011;1458;49.728;9.228;2024-03-06T01:50:09;0.40;;;0.40;;
2896;SDS011;1458;49.728;9.228;2024-03-06T01:52:37;0.40;;;0.40;;
2896;SDS011;1458;49.728;9.228;2024-03-06T01:55:06;0.53;;;0.53;;
2896;SDS011;1458;49.728;9.228;2024-03-06T01:57:35;0.60;;;0.60;;
2896;SDS011;1458;49.728;9.228;2024-03-06T02:00:07;0.40;;;0.40;;
2896;SDS011;1458;49.728;9.228;2024-03-06T02:02:39;0.40;;;0.40;;
2896;SDS011;1458;49.728;9.228;2024-03-06T02:05:09;0.40;;;0.40;;
2896;SDS011;1458;49.728;9.228;2024-03-06T02:07:38;0.40;;;0.40;;
2896;SDS011;1458;49.728;9.228;2024-03-06T02:10:07;0.40;;;0.40;;
2896;SDS011;1458;49.728;9.228;2024-03-06T02:12:37;0.40;;;0.40;;
2896;SDS011;1458;49.728;9.228;2024-03-06T02:15:06;0.40;;;0.40;;
2896;SDS011;1458;49.728;9.228;2024-03-06T02:17:36;0.50;;;0.50;;
2896;SDS011;1458;49.728;9.228;2024-03-06T02:20:06;0.53;;;0.53;;
2896;SDS011;1458;49.728;9.228;2024-03-06T02:22:38;0.60;;;0.60;;
2896;SDS011;1458;49.728;9.228;2024-03-06T02:25:06;0.40;;;0.40;;
2896;SDS011;1458;49.728;9.228;2024-03-06T02:27:34;0.50;;;0.50;;
2896;SDS011;1458;49.728;9.228;2024-03-06T02:30:02;0.40;;;0.40;;
2896;SDS011;1458;49.728;9.228;2024-03-06T02:32:31;0.50;;;0.50;;
2896;SDS011;1458;49.728;9.228;2024-03-06T02:35:00;0.40;;;0.40;;
2896;SDS011;1458;49.728;9.228;2024-03-06T02:37:28;0.70;;;0.70;;
2896;SDS011;1458;49.728;9.228;2024-03-06T02:40:00;0.40;;;0.40;;
2896;SDS011;1458;49.728;9.228;2024-03-06T02:42:28;0.43;;;0.43;;
2896;SDS011;1458;49.728;9.228;2024-03-06T02:44:55;0.40;;;0.40;;
2896;SDS011;1458;49.728;9.228;2024-03-06T02:47:22;0.40;;;0.40;;
2896;SDS011;1458;49.728;9.228;2024-03-06T02:49:50;0.50;;;0.50;;
2896;SDS011;1458;49.728;9.228;2024-03-06T02:52:17;0.47;;;0.47;;
2896;SDS011;1458;49.728;9.228;2024-03-06T02:54:44;0.40;;;0.40;;
2896;SDS011;1458;49.728;9.228;2024-03-06T02:57:13;0.57;;;0.57;;
2896;SDS011;1458;49.728;9.228;2024-03-06T02:59:40;0.50;;;0.50;;
2896;SDS011;1458;49.728;9.228;2024-03-06T03:02:09;0.40;;;0.40;;
2896;SDS011;1458;49.728;9.228;2024-03-06T03:04:36;0.50;;;0.50;;
2896;SDS011;1458;49.728;9.228;2024-03-06T03:07:03;0.40;;;0.40;;
2896;SDS011;1458;49.728;9.228;2024-03-06T03:09:32;0.40;;;0.40;;
2896;SDS011;1458;49.728;9.228;2024-03-06T03:12:01;0.60;;;0.60;;
2896;SDS011;1458;49.728;9.228;2024-03-06T03:14:30;0.40;;;0.40;;
2896;SDS011;1458;49.728;9.228;2024-03-06T03:16:58;0.47;;;0.47;;
2896;SDS011;1458;49.728;9.228;2024-03-06T03:19:27;0.43;;;0.43;;
2896;SDS011;1458;49.728;9.228;2024-03-06T03:21:54;0.40;;;0.40;;
2896;SDS011;1458;49.728;9.228;2024-03-06T03:24:22;0.40;;;0.40;;
2896;SDS011;1458;49.728;9.228;2024-03-06T03:26:51;0.40;;;0.40;;
2896;SDS011;1458;49.728;9.228;2024-03-06T03:29:18;0.50;;;0.50;;
2896;SDS011;1458;49.728;9.228;2024-03-06T03:31:47;0.50;;;0.50;;
2896;SDS011;1458;49.728;9.228;2024-03-06T03:34:15;0.40;;;0.40;;
2896;SDS011;1458;49.728;9.228;2024-03-06T03:36:42;0.57;;;0.57;;
2896;SDS011;1458;49.728;9.228;2024-03-06T03:39:10;0.40;;;0.40;;
2896;SDS011;1458;49.728;9.228;2024-03-06T03:41:44;0.40;;;0.40;;
2896;SDS011;1458;49.728;9.228;2024-03-06T03:44:12;0.40;;;0.40;;
2896;SDS011;1458;49.728;9.228;2024-03-06T03:46:40;0.50;;;0.50;;
2896;SDS011;1458;49.728;9.228;2024-03-06T03:49:09;0.40;;;0.40;;
2896;SDS011;1458;49.728;9.228;2024-03-06T03:51:37;0.60;;;0.60;;
2896;SDS011;1458;49.728;9.228;2024-03-06T03:54:05;0.50;;;0.50;;
2896;SDS011;1458;49.728;9.228;2024-03-06T03:56:33;0.40;;;0.40;;
2896;SDS011;1458;49.728;9.228;2024-03-06T03:59:01;0.50;;;0.50;;
2896;SDS011;1458;49.728;9.228;2024-03-06T04:01:28;0.40;;;0.40;;
2896;SDS011;1458;49.728;9.228;2024-03-06T04:03:55;0.40;;;0.40;;
2896;SDS011;1458;49.728;9.228;2024-03-06T04:06:24;0.40;;;0.40;;
2896;SDS011;1458;49.728;9.228;2024-03-06T04:08:52;0.40;;;0.40;;
2896;SDS011;1458;49.728;9.228;2024-03-06T04:11:19;0.40;;;0.40;;
2896;SDS011;1458;49.728;9.228;2024-03-06T04:13:47;0.40;;;0.40;;
2896;SDS011;1458;49.728;9.228;2024-03-06T04:16:15;0.50;;;0.50;;
2896;SDS011;1458;49.728;9.228;2024-03-06T04:18:44;0.40;;;0.40;;
2896;SDS011;1458;49.728;9.228;2024-03-06T04:21:11;0.40;;;0.40;;
2896;SDS011;1458;49.728;9.228;2024-03-06T04:23:41;0.40;;;0.40;;
2896;SDS011;1458;49.728;9.228;2024-03-06T04:26:10;0.40;;;0.40;;
2896;SDS011;1458;49.728;9.228;2024-03-06T04:28:37;0.47;;;0.47;;
2896;SDS011;1458;49.728;9.228;2024-03-06T04:31:05;0.50;;;0.50;;
2896;SDS011;1458;49.728;9.228;2024-03-06T04:33:32;0.40;;;0.40;;
2896;SDS011;1458;49.728;9.228;2024-03-06T04:36:00;0.43;;;0.43;;
2896;SDS011;1458;49.728;9.228;2024-03-06T04:38:28;0.50;;;0.50;;
2896;SDS011;1458;49.728;9.228;2024-03-06T04:40:57;0.47;;;0.47;;
2896;SDS011;1458;49.728;9.228;2024-03-06T04:43:24;0.40;;;0.40;;
2896;SDS011;1458;49.728;9.228;2024-03-06T04:45:52;0.40;;;0.40;;
2896;SDS011;1458;49.728;9.228;2024-03-06T04:48:19;0.40;;;0.40;;
2896;SDS011;1458;49.728;9.228;2024-03-06T04:50:46;0.50;;;0.50;;
2896;SDS011;1458;49.728;9.228;2024-03-06T04:53:14;0.40;;;0.40;;
2896;SDS011;1458;49.728;9.228;2024-03-06T04:55:42;0.40;;;0.40;;
2896;SDS011;1458;49.728;9.228;2024-03-06T04:58:11;0.40;;;0.40;;
2896;SDS011;1458;49.728;9.228;2024-03-06T05:00:38;0.40;;;0.40;;
2896;SDS011;1458;49.728;9.228;2024-03-06T05:03:06;0.40;;;0.40;;
2896;SDS011;1458;49.728;9.228;2024-03-06T05:05:33;0.40;;;0.40;;
2896;SDS011;1458;49.728;9.228;2024-03-06T05:08:01;0.50;;;0.50;;
2896;SDS011;1458;49.728;9.228;2024-03-06T05:10:28;0.50;;;0.50;;
2896;SDS011;1458;49.728;9.228;2024-03-06T05:12:56;0.40;;;0.40;;
2896;SDS011;1458;49.728;9.228;2024-03-06T05:15:25;0.40;;;0.40;;
2896;SDS011;1458;49.728;9.228;2024-03-06T05:17:52;0.47;;;0.47;;
2896;SDS011;1458;49.728;9.228;2024-03-06T05:20:21;0.40;;;0.40;;
2896;SDS011;1458;49.728;9.228;2024-03-06T05:22:48;0.40;;;0.40;;
2896;SDS011;1458;49.728;9.228;2024-03-06T05:25:16;0.40;;;0.40;;
2896;SDS011;1458;49.728;9.228;2024-03-06T05:27:43;0.40;;;0.40;;
2896;SDS011;1458;49.728;9.228;2024-03-06T05:30:11;0.40;;;0.40;;
2896;SDS011;1458;49.728;9.228;2024-03-06T05:32:41;0.40;;;0.40;;
2896;SDS011;1458;49.728;9.228;2024-03-06T05:35:08;0.40;;;0.40;;
2896;SDS011;1458;49.728;9.228;2024-03-06T05:37:37;0.50;;;0.50;;
2896;SDS011;1458;49.728;9.228;2024-03-06T05:40:04;0.50;;;0.50;;
2896;SDS011;1458;49.728;9.228;2024-03-06T05:42:34;0.50;;;0.50;;
2896;SDS011;1458;49.728;9.228;2024-03-06T05:45:01;0.53;;;0.53;;
2896;SDS011;1458;49.728;9.228;2024-03-06T05:47:31;0.60;;;0.60;;
2896;SDS011;1458;49.728;9.228;2024-03-06T05:50:00;0.50;;;0.50;;
2896;SDS011;1458;49.728;9.228;2024-03-06T05:52:29;0.40;;;0.40;;
2896;SDS011;1458;49.728;9.228;2024-03-06T05:54:57;0.50;;;0.50;;
2896;SDS011;1458;49.728;9.228;2024-03-06T05:57:25;0.47;;;0.47;;
2896;SDS011;1458;49.728;9.228;2024-03-06T05:59:52;0.60;;;0.60;;
2896;SDS011;1458;49.728;9.228;2024-03-06T06:02:20;0.40;;;0.40;;
2896;SDS011;1458;49.728;9.228;2024-03-06T06:04:47;0.40;;;0.40;;
2896;SDS011;1458;49.728;9.228;2024-03-06T06:07:17;0.40;;;0.40;;
2896;SDS011;1458;49.728;9.228;2024-03-06T06:09:44;0.40;;;0.40;;
2896;SDS011;1458;49.728;9.228;2024-03-06T06:12:11;0.50;;;0.50;;
2896;SDS011;1458;49.728;9.228;2024-03-06T06:14:39;0.40;;;0.40;;
2896;SDS011;1458;49.728;9.228;2024-03-06T06:17:06;0.40;;;0.40;;
2896;SDS011;1458;49.728;9.228;2024-03-06T06:19:33;0.40;;;0.40;;
2896;SDS011;1458;49.728;9.228;2024-03-06T06:22:01;0.40;;;0.40;;
2896;SDS011;1458;49.728;9.228;2024-03-06T06:24:30;0.40;;;0.40;;
2896;SDS011;1458;49.728;9.228;2024-03-06T06:26:57;0.50;;;0.50;;
2896;SDS011;1458;49.728;9.228;2024-03-06T06:29:24;0.50;;;0.50;;
2896;SDS011;1458;49.728;9.228;2024-03-06T06:31:52;0.40;;;0.40;;
2896;SDS011;1458;49.728;9.228;2024-03-06T06:34:19;0.40;;;0.40;;
2896;SDS011;1458;49.728;9.228;2024-03-06T06:36:46;0.40;;;0.40;;
2896;SDS011;1458;49.728;9.228;2024-03-06T06:39:14;0.60;;;0.60;;
2896;SDS011;1458;49.728;9.228;2024-03-06T06:41:43;0.50;;;0.50;;
2896;SDS011;1458;49.728;9.228;2024-03-06T06:44:10;0.50;;;0.50;;
2896;SDS011;1458;49.728;9.228;2024-03-06T06:46:38;0.40;;;0.40;;
2896;SDS011;1458;49.728;9.228;2024-03-06T06:49:06;0.47;;;0.47;;
2896;SDS011;1458;49.728;9.228;2024-03-06T06:51:34;0.40;;;0.40;;
2896;SDS011;1458;49.728;9.228;2024-03-06T06:54:01;0.40;;;0.40;;
2896;SDS011;1458;49.728;9.228;2024-03-06T06:56:29;0.40;;;0.40;;
2896;SDS011;1458;49.728;9.228;2024-03-06T06:58:59;0.40;;;0.40;;
2896;SDS011;1458;49.728;9.228;2024-03-06T07:01:26;0.60;;;0.60;;
2896;SDS011;1458;49.728;9.228;2024-03-06T07:03:53;0.40;;;0.40;;
2896;SDS011;1458;49.728;9.228;2024-03-06T07:06:21;0.50;;;0.50;;
2896;SDS011;1458;49.728;9.228;2024-03-06T07:08:49;0.40;;;0.40;;
2896;SDS011;1458;49.728;9.228;2024-03-06T07:11:17;0.40;;;0.40;;
2896;SDS011;1458;49.728;9.228;2024-03-06T07:13:45;0.40;;;0.40;;
2896;SDS011;1458;49.728;9.228;2024-03-06T07:16:14;0.43;;;0.43;;
2896;SDS011;1458;49.728;9.228;2024-03-06T07:18:41;0.40;;;0.40;;
2896;SDS011;1458;49.728;9.228;2024-03-06T07:21:09;0.50;;;0.50;;
2896;SDS011;1458;49.728;9.228;2024-03-06T07:23:36;0.50;;;0.50;;
2896;SDS011;1458;49.728;9.228;2024-03-06T07:26:03;0.40;;;0.40;;
2896;SDS011;1458;49.728;9.228;2024-03-06T07:28:31;0.50;;;0.50;;
2896;SDS011;1458;49.728;9.228;2024-03-06T07:30:58;0.40;;;0.40;;
2896;SDS011;1458;49.728;9.228;2024-03-06T07:33:27;0.50;;;0.50;;
2896;SDS011;1458;49.728;9.228;2024-03-06T07:35:54;0.47;;;0.47;;
2896;SDS011;1458;49.728;9.228;2024-03-06T07:38:22;0.40;;;0.40;;
2896;SDS011;1458;49.728;9.228;2024-03-06T07:40:49;0.40;;;0.40;;
2896;SDS011;1458;49.728;9.228;2024-03-06T07:43:17;0.40;;;0.40;;
2896;SDS011;1458;49.728;9.228;2024-03-06T07:45:44;0.50;;;0.50;;
2896;SDS011;1458;49.728;9.228;2024-03-06T07:48:13;0.50;;;0.50;;
2896;SDS011;1458;49.728;9.228;2024-03-06T07:50:41;0.50;;;0.50;;
2896;SDS011;1458;49.728;9.228;2024-03-06T07:53:09;0.50;;;0.50;;
2896;SDS011;1458;49.728;9.228;2024-03-06T07:55:39;0.50;;;0.50;;
2896;SDS011;1458;49.728;9.228;2024-03-06T07:58:07;0.50;;;0.50;;
2896;SDS011;1458;49.728;9.228;2024-03-06T08:00:34;0.50;;;0.50;;
2896;SDS011;1458;49.728;9.228;2024-03-06T08:03:02;0.60;;;0.60;;
2896;SDS011;1458;49.728;9.228;2024-03-06T08:05:29;0.50;;;0.50;;
2896;SDS011;1458;49.728;9.228;2024-03-06T08:08:00;0.50;;;0.50;;
2896;SDS011;1458;49.728;9.228;2024-03-06T08:10:28;0.50;;;0.50;;
2896;SDS011;1458;49.728;9.228;2024-03-06T08:12:56;0.50;;;0.50;;
2896;SDS011;1458;49.728;9.228;2024-03-06T08:15:24;0.50;;;0.50;;
2896;SDS011;1458;49.728;9.228;2024-03-06T08:17:51;0.50;;;0.50;;
2896;SDS011;1458;49.728;9.228;2024-03-06T08:20:18;0.50;;;0.50;;
2896;SDS011;1458;49.728;9.228;2024-03-06T08:22:46;0.50;;;0.50;;
2896;SDS011;1458;49.728;9.228;2024-03-06T08:25:15;0.40;;;0.40;;
2896;SDS011;1458;49.728;9.228;2024-03-06T08:27:42;0.60;;;0.60;;
2896;SDS011;1458;49.728;9.228;2024-03-06T08:30:10;0.50;;;0.50;;
2896;SDS011;1458;49.728;9.228;2024-03-06T08:32:38;0.50;;;0.50;;
2896;SDS011;1458;49.728;9.228;2024-03-06T08:35:06;0.47;;;0.47;;
2896;SDS011;1458;49.728;9.228;2024-03-06T08:37:36;0.50;;;0.50;;
2896;SDS011;1458;49.728;9.228;2024-03-06T08:40:04;0.50;;;0.50;;
2896;SDS011;1458;49.728;9.228;2024-03-06T08:42:37;0.70;;;0.70;;
2896;SDS011;1458;49.728;9.228;2024-03-06T08:45:04;0.50;;;0.50;;
2896;SDS011;1458;49.728;9.228;2024-03-06T08:47:33;0.50;;;0.50;;
2896;SDS011;1458;49.728;9.228;2024-03-06T08:50:00;0.60;;;0.60;;
2896;SDS011;1458;49.728;9.228;2024-03-06T08:52:28;0.50;;;0.50;;
2896;SDS011;1458;49.728;9.228;2024-03-06T08:54:56;0.60;;;0.60;;
2896;SDS011;1458;49.728;9.228;2024-03-06T08:57:23;0.80;;;0.80;;
2896;SDS011;1458;49.728;9.228;2024-03-06T08:59:54;0.50;;;0.50;;
2896;SDS011;1458;49.728;9.228;2024-03-06T09:02:22;0.60;;;0.60;;
2896;SDS011;1458;49.728;9.228;2024-03-06T09:04:50;0.60;;;0.60;;
2896;SDS011;1458;49.728;9.228;2024-03-06T09:07:18;0.60;;;0.60;;
2896;SDS011;1458;49.728;9.228;2024-03-06T09:09:48;0.70;;;0.70;;
2896;SDS011;1458;49.728;9.228;2024-03-06T09:12:17;0.70;;;0.70;;
2896;SDS011;1458;49.728;9.228;2024-03-06T09:14:44;0.60;;;0.60;;
2896;SDS011;1458;49.728;9.228;2024-03-06T09:17:13;0.80;;;0.80;;
2896;SDS011;1458;49.728;9.228;2024-03-06T09:19:41;0.70;;;0.70;;
2896;SDS011;1458;49.728;9.228;2024-03-06T09:22:09;0.70;;;0.70;;
2896;SDS011;1458;49.728;9.228;2024-03-06T09:24:37;0.70;;;0.70;;
2896;SDS011;1458;49.728;9.228;2024-03-06T09:27:05;0.70;;;0.70;;
2896;SDS011;1458;49.728;9.228;2024-03-06T09:29:32;0.70;;;0.70;;
2896;SDS011;1458;49.728;9.228;2024-03-06T09:32:00;0.70;;;0.70;;
2896;SDS011;1458;49.728;9.228;2024-03-06T09:34:28;0.70;;;0.70;;
2896;SDS011;1458;49.728;9.228;2024-03-06T09:36:56;0.60;;;0.60;;
2896;SDS011;1458;49.728;9.228;2024-03-06T09:39:23;0.70;;;0.70;;
2896;SDS011;1458;49.728;9.228;2024-03-06T09:41:51;0.80;;;0.80;;
2896;SDS011;1458;49.728;9.228;2024-03-06T09:44:18;0.70;;;0.70;;
2896;SDS011;1458;49.728;9.228;2024-03-06T09:46:47;0.77;;;0.77;;
2896;SDS011;1458;49.728;9.228;2024-03-06T09:49:16;0.77;;;0.77;;
2896;SDS011;1458;49.728;9.228;2024-03-06T09:51:46;0.70;;;0.70;;
2896;SDS011;1458;49.728;9.228;2024-03-06T09:54:15;0.60;;;0.60;;
2896;SDS011;1458;49.728;9.228;2024-03-06T09:56:43;0.70;;;0.70;;
2896;SDS011;1458;49.728;9.228;2024-03-06T09:59:11;0.70;;;0.70;;
2896;SDS011;1458;49.728;9.228;2024-03-06T10:01:40;0.70;;;0.70;;
2896;SDS011;1458;49.728;9.228;2024-03-06T10:04:18;0.80;;;0.80;;
2896;SDS011;1458;49.728;9.228;2024-03-06T10:06:48;0.60;;;0.60;;
2896;SDS011;1458;49.728;9.228;2024-03-06T10:09:16;0.70;;;0.70;;
2896;SDS011;1458;49.728;9.228;2024-03-06T10:11:45;0.70;;;0.70;;
2896;SDS011;1458;49.728;9.228;2024-03-06T10:14:13;0.70;;;0.70;;
2896;SDS011;1458;49.728;9.228;2024-03-06T10:16:51;0.70;;;0.70;;
2896;SDS011;1458;49.728;9.228;2024-03-06T10:19:21;0.60;;;0.60;;
2896;SDS011;1458;49.728;9.228;2024-03-06T10:21:51;0.80;;;0.80;;
2896;SDS011;1458;49.728;9.228;2024-03-06T10:24:19;0.67;;;0.67;;
2896;SDS011;1458;49.728;9.228;2024-03-06T10:26:49;0.70;;;0.70;;
2896;SDS011;1458;49.728;9.228;2024-03-06T10:29:19;0.90;;;0.90;;
2896;SDS011;1458;49.728;9.228;2024-03-06T10:31:50;0.80;;;0.80;;
2896;SDS011;1458;49.728;9.228;2024-03-06T10:34:20;0.70;;;0.70;;
2896;SDS011;1458;49.728;9.228;2024-03-06T10:36:48;0.70;;;0.70;;
2896;SDS011;1458;49.728;9.228;2024-03-06T10:39:23;0.90;;;0.90;;
2896;SDS011;1458;49.728;9.228;2024-03-06T10:41:52;0.60;;;0.60;;
2896;SDS011;1458;49.728;9.228;2024-03-06T10:44:21;0.60;;;0.60;;
2896;SDS011;1458;49.728;9.228;2024-03-06T10:46:53;0.70;;;0.70;;
2896;SDS011;1458;49.728;9.228;2024-03-06T10:49:25;0.70;;;0.70;;
2896;SDS011;1458;49.728;9.228;2024-03-06T10:51:58;0.70;;;0.70;;
2896;SDS011;1458;49.728;9.228;2024-03-06T10:54:28;0.63;;;0.63;;
2896;SDS011;1458;49.728;9.228;2024-03-06T10:56:57;0.73;;;0.73;;
2896;SDS011;1458;49.728;9.228;2024-03-06T10:59:25;0.80;;;0.80;;
2896;SDS011;1458;49.728;9.228;2024-03-06T11:01:54;0.60;;;0.60;;
2896;SDS011;1458;49.728;9.228;2024-03-06T11:04:23;0.53;;;0.53;;
2896;SDS011;1458;49.728;9.228;2024-03-06T11:06:53;0.70;;;0.70;;
2896;SDS011;1458;49.728;9.228;2024-03-06T11:09:23;0.60;;;0.60;;
2896;SDS011;1458;49.728;9.228;2024-03-06T11:11:50;0.70;;;0.70;;
2896;SDS011;1458;49.728;9.228;2024-03-06T11:14:20;0.80;;;0.80;;
2896;SDS011;1458;49.728;9.228;2024-03-06T11:16:56;0.60;;;0.60;;
2896;SDS011;1458;49.728;9.228;2024-03-06T11:19:28;0.60;;;0.60;;
2896;SDS011;1458;49.728;9.228;2024-03-06T11:21:57;0.60;;;0.60;;
2896;SDS011;1458;49.728;9.228;2024-03-06T11:24:32;0.50;;;0.50;;
2896;SDS011;1458;49.728;9.228;2024-03-06T11:27:00;0.60;;;0.60;;
2896;SDS011;1458;49.728;9.228;2024-03-06T11:32:36;0.80;;;0.80;;
2896;SDS011;1458;49.728;9.228;2024-03-06T11:35:04;0.60;;;0.60;;
2896;SDS011;1458;49.728;9.228;2024-03-06T11:37:34;0.87;;;0.87;;
2896;SDS011;1458;49.728;9.228;2024-03-06T11:40:05;0.67;;;0.67;;
2896;SDS011;1458;49.728;9.228;2024-03-06T11:42:36;0.70;;;0.70;;
2896;SDS011;1458;49.728;9.228;2024-03-06T11:45:12;0.90;;;0.90;;
2896;SDS011;1458;49.728;9.228;2024-03-06T11:50:28;1.10;;;1.10;;
2896;SDS011;1458;49.728;9.228;2024-03-06T11:52:57;0.83;;;0.83;;
2896;SDS011;1458;49.728;9.228;2024-03-06T11:55:25;0.80;;;0.80;;
2896;SDS011;1458;49.728;9.228;2024-03-06T11:57:53;0.97;;;0.97;;
2896;SDS011;1458;49.728;9.228;2024-03-06T12:00:21;0.90;;;0.90;;
2896;SDS011;1458;49.728;9.228;2024-03-06T12:02:49;0.87;;;0.87;;
2896;SDS011;1458;49.728;9.228;2024-03-06T12:05:17;0.70;;;0.70;;
2896;SDS011;1458;49.728;9.228;2024-03-06T12:07:46;0.70;;;0.70;;
2896;SDS011;1458;49.728;9.228;2024-03-06T12:10:13;0.70;;;0.70;;
2896;SDS011;1458;49.728;9.228;2024-03-06T12:12:44;0.90;;;0.90;;
2896;SDS011;1458;49.728;9.228;2024-03-06T12:15:12;0.60;;;0.60;;
2896;SDS011;1458;49.728;9.228;2024-03-06T12:17:44;0.67;;;0.67;;
2896;SDS011;1458;49.728;9.228;2024-03-06T12:20:12;0.67;;;0.67;;
2896;SDS011;1458;49.728;9.228;2024-03-06T12:22:44;0.53;;;0.53;;
2896;SDS011;1458;49.728;9.228;2024-03-06T12:25:18;0.60;;;0.60;;
2896;SDS011;1458;49.728;9.228;2024-03-06T12:27:47;0.60;;;0.60;;
2896;SDS011;1458;49.728;9.228;2024-03-06T12:30:16;0.60;;;0.60;;
2896;SDS011;1458;49.728;9.228;2024-03-06T12:32:55;0.63;;;0.63;;
2896;SDS011;1458;49.728;9.228;2024-03-06T12:35:26;0.60;;;0.60;;
2896;SDS011;1458;49.728;9.228;2024-03-06T12:37:54;0.70;;;0.70;;
2896;SDS011;1458;49.728;9.228;2024-03-06T12:40:21;0.60;;;0.60;;
2896;SDS011;1458;49.728;9.228;2024-03-06T12:42:50;0.60;;;0.60;;
2896;SDS011;1458;49.728;9.228;2024-03-06T12:45:18;0.60;;;0.60;;
2896;SDS011;1458;49.728;9.228;2024-03-06T12:47:46;0.50;;;0.50;;
2896;SDS011;1458;49.728;9.228;2024-03-06T12:50:14;0.60;;;0.60;;
2896;SDS011;1458;49.728;9.228;2024-03-06T12:52:42;0.50;;;0.50;;
2896;SDS011;1458;49.728;9.228;2024-03-06T12:55:11;0.67;;;0.67;;
2896;SDS011;1458;49.728;9.228;2024-03-06T12:57:39;0.50;;;0.50;;
2896;SDS011;1458;49.728;9.228;2024-03-06T13:00:08;0.50;;;0.50;;
2896;SDS011;1458;49.728;9.228;2024-03-06T13:02:41;0.50;;;0.50;;
2896;SDS011;1458;49.728;9.228;2024-03-06T13:05:09;0.60;;;0.60;;
2896;SDS011;1458;49.728;9.228;2024-03-06T13:07:36;0.60;;;0.60;;
2896;SDS011;1458;49.728;9.228;2024-03-06T13:10:05;0.60;;;0.60;;
2896;SDS011;1458;49.728;9.228;2024-03-06T13:12:35;0.80;;;0.80;;
2896;SDS011;1458;49.728;9.228;2024-03-06T13:15:03;0.80;;;0.80;;
2896;SDS011;1458;49.728;9.228;2024-03-06T13:17:34;0.70;;;0.70;;
2896;SDS011;1458;49.728;9.228;2024-03-06T13:20:01;0.73;;;0.73;;
2896;SDS011;1458;49.728;9.228;2024-03-06T13:22:29;0.80;;;0.80;;
2896;SDS011;1458;49.728;9.228;2024-03-06T13:24:57;0.93;;;0.93;;
2896;SDS011;1458;49.728;9.228;2024-03-06T13:27:24;1.00;;;1.00;;
2896;SDS011;1458;49.728;9.228;2024-03-06T13:29:52;1.00;;;1.00;;
2896;SDS011;1458;49.728;9.228;2024-03-06T13:32:19;1.17;;;1.17;;
2896;SDS011;1458;49.728;9.228;2024-03-06T13:34:52;1.23;;;1.23;;
2896;SDS011;1458;49.728;9.228;2024-03-06T13:37:20;1.23;;;1.23;;
2896;SDS011;1458;49.728;9.228;2024-03-06T13:39:49;1.13;;;1.13;;
2896;SDS011;1458;49.728;9.228;2024-03-06T13:42:17;1.20;;;1.20;;
2896;SDS011;1458;49.728;9.228;2024-03-06T13:44:45;1.30;;;1.30;;
2896;SDS011;1458;49.728;9.228;2024-03-06T13:47:14;1.30;;;1.30;;
2896;SDS011;1458;49.728;9.228;2024-03-06T13:49:42;1.57;;;1.57;;
2896;SDS011;1458;49.728;9.228;2024-03-06T13:52:11;1.60;;;1.60;;
2896;SDS011;1458;49.728;9.228;2024-03-06T13:54:40;1.60;;;1.60;;
2896;SDS011;1458;49.728;9.228;2024-03-06T13:57:09;1.83;;;1.83;;
2896;SDS011;1458;49.728;9.228;2024-03-06T13:59:36;1.70;;;1.70;;
2896;SDS011;1458;49.728;9.228;2024-03-06T14:02:05;1.60;;;1.60;;
2896;SDS011;1458;49.728;9.228;2024-03-06T14:04:33;1.70;;;1.70;;
2896;SDS011;1458;49.728;9.228;2024-03-06T14:07:00;1.60;;;1.60;;
2896;SDS011;1458;49.728;9.228;2024-03-06T14:09:29;1.80;;;1.80;;
2896;SDS011;1458;49.728;9.228;2024-03-06T14:11:57;2.27;;;2.27;;
2896;SDS011;1458;49.728;9.228;2024-03-06T14:14:24;2.10;;;2.10;;
2896;SDS011;1458;49.728;9.228;2024-03-06T14:16:52;1.93;;;1.93;;
2896;SDS011;1458;49.728;9.228;2024-03-06T14:19:19;2.17;;;2.17;;
2896;SDS011;1458;49.728;9.228;2024-03-06T14:21:47;2.27;;;2.27;;
2896;SDS011;1458;49.728;9.228;2024-03-06T14:24:15;2.40;;;2.40;;
2896;SDS011;1458;49.728;9.228;2024-03-06T14:26:43;2.60;;;2.60;;
2896;SDS011;1458;49.728;9.228;2024-03-06T14:29:11;2.33;;;2.33;;
2896;SDS011;1458;49.728;9.228;2024-03-06T14:31:38;2.10;;;2.10;;
2896;SDS011;1458;49.728;9.228;2024-03-06T14:34:06;2.10;;;2.10;;
2896;SDS011;1458;49.728;9.228;2024-03-06T14:36:33;2.10;;;2.10;;
2896;SDS011;1458;49.728;9.228;2024-03-06T14:39:01;2.07;;;2.07;;
2896;SDS011;1458;49.728;9.228;2024-03-06T14:41:28;2.10;;;2.10;;
2896;SDS011;1458;49.728;9.228;2024-03-06T14:43:57;2.03;;;2.03;;
2896;SDS011;1458;49.728;9.228;2024-03-06T14:46:24;1.83;;;1.83;;
2896;SDS011;1458;49.728;9.228;2024-03-06T14:48:52;2.17;;;2.17;;
2896;SDS011;1458;49.728;9.228;2024-03-06T14:51:19;2.10;;;2.10;;
2896;SDS011;1458;49.728;9.228;2024-03-06T14:53:47;2.33;;;2.33;;
2896;SDS011;1458;49.728;9.228;2024-03-06T14:56:15;2.10;;;2.10;;
2896;SDS011;1458;49.728;9.228;2024-03-06T14:58:43;2.10;;;2.10;;
2896;SDS011;1458;49.728;9.228;2024-03-06T15:01:12;1.90;;;1.90;;
2896;SDS011;1458;49.728;9.228;2024-03-06T15:03:42;2.30;;;2.30;;
2896;SDS011;1458;49.728;9.228;2024-03-06T15:06:10;1.83;;;1.83;;
2896;SDS011;1458;49.728;9.228;2024-03-06T15:08:38;1.93;;;1.93;;
2896;SDS011;1458;49.728;9.228;2024-03-06T15:11:06;1.83;;;1.83;;
2896;SDS011;1458;49.728;9.228;2024-03-06T15:13:33;1.50;;;1.50;;
2896;SDS011;1458;49.728;9.228;2024-03-06T15:16:01;1.60;;;1.60;;
2896;SDS011;1458;49.728;9.228;2024-03-06T15:18:31;1.50;;;1.50;;
2896;SDS011;1458;49.728;9.228;2024-03-06T15:20:59;1.77;;;1.77;;
2896;SDS011;1458;49.728;9.228;2024-03-06T15:23:26;1.63;;;1.63;;
2896;SDS011;1458;49.728;9.228;2024-03-06T15:25:54;1.20;;;1.20;;
2896;SDS011;1458;49.728;9.228;2024-03-06T15:28:21;1.30;;;1.30;;